Time;durP1;ratioP1;P1;durP2;ratioP2;P2;SDS_P1;SDS_P2;PMS_P1;PMS_P2;Temp;Humidity;BMP_temperature;BMP_pressure;BME280_temperature;BME280_humidity;BME280_pressure;Samples;Min_cycle;Max_cycle;Signal;HPM_P1;HPM_P2
2023/02/02 00:01:25;;;;;;;1.92;0.90;;;9.10;84.60;;;;;;5043583;28;20025;-63
2023/02/02 00:03:51;;;;;;;2.00;1.05;;;9.10;84.50;;;;;;5052674;28;20064;-63
2023/02/02 00:06:19;;;;;;;6.18;1.35;;;9.20;84.40;;;;;;5053500;28;20060;-64
2023/02/02 00:08:45;;;;;;;1.63;1.17;;;9.20;84.40;;;;;;5046598;28;20036;-63
2023/02/02 00:11:11;;;;;;;6.45;1.85;;;9.20;84.80;;;;;;5045557;28;20044;-62
2023/02/02 00:13:37;;;;;;;3.70;1.83;;;9.10;84.90;;;;;;5036954;28;20021;-64
2023/02/02 00:16:25;;;;;;;6.82;1.92;;;9.10;85.10;;;;;;5050309;28;20021;-64
2023/02/02 00:18:55;;;;;;;6.18;2.05;;;9.20;85.30;;;;;;5049024;28;20048;-64
2023/02/02 00:21:21;;;;;;;2.92;1.27;;;9.10;85.50;;;;;;5043380;28;20064;-69
2023/02/02 00:23:47;;;;;;;6.90;1.52;;;9.10;85.60;;;;;;5046341;28;20025;-63
2023/02/02 00:26:12;;;;;;;5.93;1.98;;;9.20;85.70;;;;;;5049394;28;20063;-63
2023/02/02 00:28:38;;;;;;;7.72;2.13;;;9.20;85.60;;;;;;5042946;28;20025;-66
2023/02/02 00:31:04;;;;;;;6.70;2.13;;;9.20;85.70;;;;;;5076448;28;20057;-64
2023/02/02 00:33:29;;;;;;;4.15;1.75;;;9.20;85.70;;;;;;5044194;28;20044;-63
2023/02/02 00:35:55;;;;;;;5.32;1.60;;;9.20;85.70;;;;;;5065056;28;20115;-62
2023/02/02 00:38:20;;;;;;;1.95;1.20;;;9.20;85.70;;;;;;5045702;28;20570;-67
2023/02/02 00:40:46;;;;;;;10.27;2.08;;;9.30;85.90;;;;;;5047962;28;20537;-68
2023/02/02 00:43:12;;;;;;;6.72;1.33;;;9.20;85.80;;;;;;5047036;28;20051;-68
2023/02/02 00:45:38;;;;;;;3.00;1.45;;;9.20;85.80;;;;;;5047324;28;20033;-67
2023/02/02 00:48:04;;;;;;;5.35;2.40;;;9.20;85.90;;;;;;5043878;28;20130;-68
2023/02/02 00:50:30;;;;;;;2.47;1.95;;;9.20;86.00;;;;;;5048657;28;20033;-67
2023/02/02 00:52:57;;;;;;;3.50;1.52;;;9.20;86.00;;;;;;5044422;28;20029;-69
2023/02/02 00:55:24;;;;;;;4.13;1.38;;;9.20;86.00;;;;;;5045954;28;20029;-68
2023/02/02 00:57:50;;;;;;;8.70;2.55;;;9.20;86.10;;;;;;5045019;28;20024;-69
2023/02/02 01:00:22;;;;;;;3.20;1.85;;;9.20;86.10;;;;;;5046894;28;20021;-69
2023/02/02 01:02:49;;;;;;;4.13;1.92;;;9.10;86.00;;;;;;5036880;28;20041;-69
2023/02/02 01:05:15;;;;;;;4.85;2.22;;;9.10;86.10;;;;;;5052753;28;20021;-69
2023/02/02 01:07:40;;;;;;;4.03;1.50;;;9.10;86.10;;;;;;5050101;28;20041;-69
2023/02/02 01:10:10;;;;;;;8.93;1.73;;;9.10;86.20;;;;;;5064578;28;20036;-69
2023/02/02 01:12:35;;;;;;;3.30;1.52;;;9.10;86.10;;;;;;5040634;28;20037;-69
2023/02/02 01:15:01;;;;;;;2.85;1.48;;;9.10;86.20;;;;;;5049024;28;20036;-64
2023/02/02 01:17:27;;;;;;;7.28;2.00;;;9.10;86.10;;;;;;5042744;28;20067;-64
2023/02/02 01:19:53;;;;;;;9.30;1.67;;;9.20;86.10;;;;;;5047939;28;20078;-64
2023/02/02 01:22:18;;;;;;;4.00;1.85;;;9.20;86.10;;;;;;5038555;28;20083;-63
2023/02/02 01:24:44;;;;;;;8.18;1.90;;;9.10;86.00;;;;;;5043714;28;20029;-63
2023/02/02 01:27:10;;;;;;;3.15;1.95;;;9.20;86.10;;;;;;5035629;28;20120;-64
2023/02/02 01:29:35;;;;;;;8.90;1.50;;;9.20;86.20;;;;;;5047875;28;20064;-69
2023/02/02 01:32:01;;;;;;;8.75;2.03;;;9.20;86.20;;;;;;5045952;28;20021;-69
2023/02/02 01:34:27;;;;;;;3.00;1.70;;;9.20;86.10;;;;;;5046327;28;20059;-69
2023/02/02 01:36:53;;;;;;;23.15;2.50;;;9.20;86.20;;;;;;5039154;28;20029;-65
2023/02/02 01:39:19;;;;;;;3.20;1.48;;;9.20;86.20;;;;;;5047206;28;20055;-69
2023/02/02 01:41:44;;;;;;;5.78;2.45;;;9.20;86.30;;;;;;5049326;28;20029;-63
2023/02/02 01:45:07;;;;;;;2.83;1.50;;;9.20;86.30;;;;;;5053679;28;20029;-64
2023/02/02 01:47:44;;;;;;;4.25;1.65;;;9.20;86.30;;;;;;5048969;28;20033;-69
2023/02/02 01:50:12;;;;;;;7.95;2.63;;;9.10;86.30;;;;;;5050054;28;20154;-69
2023/02/02 01:52:38;;;;;;;5.20;1.55;;;9.10;86.40;;;;;;5046446;28;20076;-69
2023/02/02 01:55:10;;;;;;;2.17;1.42;;;9.10;86.20;;;;;;5049874;28;20101;-63
2023/02/02 01:57:48;;;;;;;7.68;1.90;;;9.10;86.10;;;;;;5050531;28;20040;-64
2023/02/02 02:00:15;;;;;;;6.20;1.48;;;9.10;86.20;;;;;;5043503;28;20031;-63
2023/02/02 02:02:47;;;;;;;6.10;1.77;;;9.10;86.20;;;;;;5041208;28;20065;-70
2023/02/02 02:05:17;;;;;;;4.35;1.52;;;9.10;86.20;;;;;;5050817;28;20093;-69
2023/02/02 02:07:45;;;;;;;2.45;1.35;;;9.10;86.20;;;;;;5038635;28;20124;-68
2023/02/02 02:10:11;;;;;;;3.38;1.20;;;9.10;86.10;;;;;;5050052;28;20108;-69
2023/02/02 02:12:36;;;;;;;5.30;0.88;;;9.10;86.10;;;;;;5038294;28;20120;-69
2023/02/02 02:17:57;;;;;;;5.47;1.40;;;9.10;85.90;;;;;;5048976;28;20072;-68
2023/02/02 02:27:10;;;;;;;1.55;0.93;;;9.10;85.80;;;;;;5051267;28;20565;-68
2023/02/02 02:30:11;;;;;;;3.55;1.17;;;9.10;85.80;;;;;;5050757;28;20119;-68
2023/02/02 02:32:52;;;;;;;4.63;1.70;;;9.00;85.90;;;;;;5040503;28;20041;-68
2023/02/02 02:35:55;;;;;;;2.80;1.10;;;8.90;85.90;;;;;;5050738;28;20032;-68
2023/02/02 02:38:33;;;;;;;0.82;0.73;;;8.90;85.90;;;;;;5031373;28;20076;-68
2023/02/02 02:41:05;;;;;;;2.63;1.30;;;8.90;86.10;;;;;;5061467;28;20032;-69
2023/02/02 02:43:36;;;;;;;1.08;0.70;;;8.90;86.10;;;;;;5044407;28;20032;-68
2023/02/02 02:46:03;;;;;;;3.88;1.08;;;8.90;86.10;;;;;;5041899;28;20041;-68
2023/02/02 02:48:29;;;;;;;1.92;0.82;;;8.90;86.10;;;;;;5043304;28;20064;-68
2023/02/02 02:51:27;;;;;;;1.70;0.82;;;8.90;86.20;;;;;;5054292;28;20111;-63
2023/02/02 02:53:54;;;;;;;3.78;0.85;;;8.90;86.20;;;;;;5051929;28;20094;-68
2023/02/02 02:56:32;;;;;;;1.52;0.57;;;8.80;86.30;;;;;;5047041;28;20125;-63
2023/02/02 02:59:11;;;;;;;0.98;0.68;;;8.90;86.30;;;;;;5048432;28;20396;-64
2023/02/02 03:01:50;;;;;;;3.13;0.60;;;8.90;86.50;;;;;;5045895;28;20032;-63
2023/02/02 03:04:28;;;;;;;7.05;1.02;;;8.80;86.60;;;;;;5041467;28;20104;-63
2023/02/02 03:07:01;;;;;;;9.02;1.77;;;8.80;86.80;;;;;;5045479;28;20103;-63
2023/02/02 03:09:36;;;;;;;3.47;1.45;;;8.80;86.90;;;;;;5054509;28;20048;-68
2023/02/02 03:12:02;;;;;;;2.92;1.25;;;8.80;87.00;;;;;;5045643;28;20079;-69
2023/02/02 03:14:27;;;;;;;1.77;0.80;;;8.80;87.10;;;;;;5050257;28;20488;-69
2023/02/02 03:16:53;;;;;;;1.52;1.33;;;8.80;87.20;;;;;;5048278;28;20021;-69
2023/02/02 03:19:19;;;;;;;1.90;1.35;;;8.80;87.10;;;;;;5051898;28;20037;-69
2023/02/02 03:21:45;;;;;;;3.58;1.63;;;8.80;87.10;;;;;;5046360;28;20364;-63
2023/02/02 03:24:10;;;;;;;2.40;1.10;;;8.90;87.00;;;;;;5047860;28;20103;-68
2023/02/02 03:26:36;;;;;;;5.82;1.65;;;8.90;87.00;;;;;;5050053;28;20029;-70
2023/02/02 03:29:02;;;;;;;2.08;1.08;;;8.90;87.00;;;;;;5052163;28;20029;-71
2023/02/02 03:31:29;;;;;;;6.50;1.45;;;8.90;87.10;;;;;;5045791;28;20059;-66
2023/02/02 03:33:55;;;;;;;4.93;1.80;;;8.90;87.20;;;;;;5059128;28;20124;-66
2023/02/02 03:36:21;;;;;;;2.15;1.25;;;9.00;87.20;;;;;;5041615;28;20033;-68
2023/02/02 03:38:47;;;;;;;3.85;1.75;;;8.90;87.20;;;;;;5049972;28;20108;-69
2023/02/02 03:41:13;;;;;;;2.17;1.00;;;9.00;87.20;;;;;;5041546;28;20120;-69
2023/02/02 03:43:38;;;;;;;4.90;2.03;;;9.00;87.00;;;;;;5044534;28;20467;-69
2023/02/02 03:46:05;;;;;;;3.65;1.60;;;9.00;87.00;;;;;;5051053;28;20044;-68
2023/02/02 03:48:34;;;;;;;12.25;1.67;;;9.00;87.00;;;;;;5046326;28;20033;-69
2023/02/02 03:51:03;;;;;;;2.78;1.50;;;9.00;87.00;;;;;;5051940;28;20039;-68
2023/02/02 03:53:29;;;;;;;7.63;1.83;;;9.00;87.00;;;;;;5043856;28;20039;-69
2023/02/02 03:55:54;;;;;;;2.72;1.40;;;9.00;87.00;;;;;;5044061;28;20385;-69
2023/02/02 03:58:21;;;;;;;5.35;1.75;;;9.00;87.00;;;;;;5044718;28;20043;-70
2023/02/02 04:00:47;;;;;;;6.38;1.80;;;9.00;87.00;;;;;;5051534;28;20037;-68
2023/02/02 04:03:12;;;;;;;2.30;1.77;;;9.00;86.90;;;;;;5049692;28;20048;-68
2023/02/02 04:05:38;;;;;;;4.43;2.30;;;9.00;87.00;;;;;;5048014;28;20029;-62
2023/02/02 04:08:04;;;;;;;3.63;1.58;;;9.00;87.00;;;;;;5069149;28;20049;-63
2023/02/02 04:10:29;;;;;;;9.82;2.05;;;9.00;87.00;;;;;;5039621;28;20090;-63
2023/02/02 04:12:55;;;;;;;9.52;1.95;;;9.10;87.00;;;;;;5048741;28;20032;-63
2023/02/02 04:15:21;;;;;;;5.65;1.40;;;9.10;86.90;;;;;;5048745;28;20033;-63
2023/02/02 04:17:46;;;;;;;13.55;1.67;;;9.10;86.80;;;;;;5029419;28;20071;-67
2023/02/02 04:20:12;;;;;;;6.55;2.03;;;9.10;86.80;;;;;;5045137;28;20610;-66
2023/02/02 04:22:38;;;;;;;5.05;1.98;;;9.10;86.80;;;;;;5037520;28;20458;-63
2023/02/02 04:25:04;;;;;;;9.05;2.33;;;9.10;86.80;;;;;;5038289;28;20033;-66
2023/02/02 04:27:31;;;;;;;7.13;2.53;;;9.10;86.70;;;;;;5046851;28;20017;-67
2023/02/02 04:29:57;;;;;;;3.30;1.52;;;9.20;86.70;;;;;;5041499;28;20033;-69
2023/02/02 04:32:22;;;;;;;7.93;1.65;;;9.20;86.70;;;;;;5040687;28;20033;-69
2023/02/02 04:34:48;;;;;;;5.75;1.75;;;9.20;86.60;;;;;;5042918;28;20068;-69
2023/02/02 04:37:14;;;;;;;12.25;1.77;;;9.20;86.60;;;;;;5037119;28;20025;-68
2023/02/02 04:39:54;;;;;;;3.28;2.00;;;9.20;86.50;;;;;;5051830;28;20094;-69
2023/02/02 04:42:19;;;;;;;7.68;2.50;;;9.20;87.10;;;;;;5059015;28;20388;-68
2023/02/02 04:44:45;;;;;;;8.88;2.08;;;9.30;86.40;;;;;;5047986;28;20025;-69
2023/02/02 04:47:11;;;;;;;6.20;2.05;;;9.30;86.40;;;;;;5050245;28;20053;-70
2023/02/02 04:49:37;;;;;;;8.13;1.92;;;9.30;86.30;;;;;;5040875;28;20022;-68
2023/02/02 04:52:02;;;;;;;7.93;1.73;;;9.30;86.20;;;;;;5045991;28;20025;-62
2023/02/02 04:54:28;;;;;;;6.03;2.25;;;9.30;86.20;;;;;;5067821;28;20107;-63
2023/02/02 04:56:54;;;;;;;5.93;1.70;;;9.30;86.00;;;;;;5045699;28;20025;-64
2023/02/02 04:59:19;;;;;;;8.20;2.78;;;9.30;86.00;;;;;;5052430;28;20032;-63
2023/02/02 05:01:45;;;;;;;3.95;1.77;;;9.30;85.90;;;;;;5038175;28;20416;-63
2023/02/02 05:04:11;;;;;;;7.75;1.67;;;9.30;86.00;;;;;;5051052;28;20024;-63
2023/02/02 05:06:36;;;;;;;5.13;1.85;;;9.30;86.00;;;;;;5043370;28;20110;-62
2023/02/02 05:09:02;;;;;;;8.43;1.50;;;9.40;86.00;;;;;;5047417;28;20041;-63
2023/02/02 05:11:29;;;;;;;4.15;1.65;;;9.40;86.00;;;;;;5062975;28;20109;-63
2023/02/02 05:13:55;;;;;;;6.38;2.10;;;9.40;85.90;;;;;;5051006;28;20493;-69
2023/02/02 05:16:22;;;;;;;4.05;1.35;;;9.40;85.90;;;;;;5039338;28;20131;-68
2023/02/02 05:18:52;;;;;;;2.08;1.30;;;9.40;85.90;;;;;;5045153;28;20376;-68
2023/02/02 05:21:19;;;;;;;9.98;1.98;;;9.40;85.90;;;;;;5046523;28;20041;-69
2023/02/02 05:23:45;;;;;;;3.00;1.38;;;9.40;85.90;;;;;;5046517;28;20044;-62
2023/02/02 05:26:17;;;;;;;3.45;1.83;;;9.40;85.90;;;;;;5045690;28;20021;-63
2023/02/02 05:28:43;;;;;;;;;;;9.40;85.80;;;;;;5048053;28;20020;-68
2023/02/02 05:31:09;;;;;;;3.05;1.70;;;9.40;85.70;;;;;;5034822;28;19916;-67
2023/02/02 05:33:36;;;;;;;3.88;1.33;;;9.40;85.80;;;;;;5070204;28;20032;-68
2023/02/02 05:36:03;;;;;;;3.10;1.60;;;9.40;85.60;;;;;;5057507;28;20029;-71
2023/02/02 05:38:28;;;;;;;4.18;1.80;;;9.40;85.60;;;;;;5045340;28;20061;-63
2023/02/02 05:40:54;;;;;;;8.32;1.63;;;9.40;85.50;;;;;;5046702;28;20122;-63
2023/02/02 05:43:23;;;;;;;4.43;2.58;;;9.50;85.40;;;;;;5041016;28;20061;-63
2023/02/02 05:45:48;;;;;;;5.35;1.83;;;9.50;85.50;;;;;;5047340;28;20064;-63
2023/02/02 05:48:14;;;;;;;9.05;2.53;;;9.50;85.50;;;;;;5051658;28;20048;-63
2023/02/02 05:50:48;;;;;;;9.30;1.70;;;9.50;85.40;;;;;;5045411;28;20037;-62
2023/02/02 05:53:14;;;;;;;4.85;1.98;;;9.50;85.40;;;;;;5041727;28;20036;-63
2023/02/02 05:55:40;;;;;;;5.50;1.80;;;9.50;85.30;;;;;;5046183;28;20026;-63
2023/02/02 05:58:06;;;;;;;10.18;2.13;;;9.60;85.40;;;;;;5042192;28;20685;-68
2023/02/02 06:00:31;;;;;;;9.37;2.33;;;9.60;85.40;;;;;;5042353;28;20033;-68
2023/02/02 06:02:57;;;;;;;7.57;2.38;;;9.60;85.30;;;;;;5044430;28;20278;-67
2023/02/02 06:05:23;;;;;;;3.13;1.23;;;9.60;85.30;;;;;;5046329;28;20037;-64
2023/02/02 06:07:49;;;;;;;4.85;1.52;;;9.60;85.40;;;;;;5039928;28;20514;-63
2023/02/02 06:10:15;;;;;;;8.13;2.88;;;9.60;85.40;;;;;;5042624;28;20037;-63
2023/02/02 06:12:41;;;;;;;8.38;2.08;;;9.60;85.40;;;;;;5039849;28;20035;-63
2023/02/02 06:15:07;;;;;;;9.32;1.77;;;9.60;85.40;;;;;;5045310;28;20060;-63
2023/02/02 06:17:32;;;;;;;9.10;2.40;;;9.60;85.40;;;;;;5077246;28;20033;-63
2023/02/02 06:19:58;;;;;;;5.85;2.42;;;9.60;85.40;;;;;;5041185;28;20023;-63
2023/02/02 06:22:24;;;;;;;6.90;1.70;;;9.60;85.40;;;;;;5047640;28;20037;-62
2023/02/02 06:24:52;;;;;;;13.63;2.50;;;9.60;85.40;;;;;;5042860;28;20108;-63
2023/02/02 06:27:19;;;;;;;5.93;1.75;;;9.60;85.50;;;;;;5048764;28;20102;-63
2023/02/02 06:29:44;;;;;;;3.83;1.30;;;9.60;85.60;;;;;;5051886;28;20111;-68
2023/02/02 06:32:10;;;;;;;3.70;1.75;;;9.60;85.60;;;;;;5039980;28;20124;-68
2023/02/02 06:34:35;;;;;;;7.15;1.35;;;9.60;85.70;;;;;;5045718;28;20032;-62
2023/02/02 06:37:01;;;;;;;8.43;1.73;;;9.60;85.80;;;;;;5046002;28;20039;-68
2023/02/02 06:39:27;;;;;;;7.10;2.30;;;9.60;85.90;;;;;;5044590;28;20731;-68
2023/02/02 06:41:52;;;;;;;4.63;1.85;;;9.60;85.90;;;;;;5045757;28;20021;-68
2023/02/02 06:44:19;;;;;;;6.38;1.95;;;9.60;86.00;;;;;;5044756;28;20036;-67
2023/02/02 06:46:45;;;;;;;4.78;1.92;;;9.60;86.10;;;;;;5039666;28;20502;-63
2023/02/02 06:49:11;;;;;;;8.98;2.47;;;9.50;86.10;;;;;;5050461;28;20105;-63
2023/02/02 06:51:37;;;;;;;5.88;1.75;;;9.50;86.30;;;;;;5049126;28;20124;-69
2023/02/02 06:54:03;;;;;;;4.57;1.70;;;9.50;86.30;;;;;;5047945;28;20383;-68
2023/02/02 06:56:29;;;;;;;4.22;1.63;;;9.50;86.40;;;;;;5064097;28;20567;-67
2023/02/02 06:58:54;;;;;;;3.05;1.70;;;9.50;86.50;;;;;;5046678;28;20101;-68
2023/02/02 07:01:20;;;;;;;9.50;2.08;;;9.50;86.50;;;;;;5078234;28;20025;-68
2023/02/02 07:03:50;;;;;;;6.63;1.85;;;9.50;86.60;;;;;;5052698;28;20017;-67
2023/02/02 07:06:22;;;;;;;9.05;1.30;;;9.50;86.70;;;;;;5052590;28;20037;-63
2023/02/02 07:08:49;;;;;;;2.83;1.70;;;9.50;86.80;;;;;;5051584;28;20044;-63
2023/02/02 07:11:15;;;;;;;6.10;1.83;;;9.50;86.80;;;;;;5048528;28;20032;-64
2023/02/02 07:13:41;;;;;;;4.15;1.70;;;9.50;86.90;;;;;;5042603;28;20096;-62
2023/02/02 07:16:08;;;;;;;10.52;1.83;;;9.50;86.90;;;;;;5037780;28;20121;-63
2023/02/02 07:18:35;;;;;;;3.22;1.45;;;9.50;86.90;;;;;;5046969;28;20708;-62
2023/02/02 07:21:01;;;;;;;4.15;1.60;;;9.50;86.90;;;;;;5051243;28;20091;-62
2023/02/02 07:23:28;;;;;;;5.00;1.55;;;9.50;87.00;;;;;;5047993;28;20068;-63
2023/02/02 07:26:07;;;;;;;6.55;1.45;;;9.50;87.00;;;;;;5041163;28;20044;-65
2023/02/02 07:28:34;;;;;;;2.35;1.35;;;9.50;87.00;;;;;;5047910;28;20468;-61
2023/02/02 07:31:00;;;;;;;1.65;1.33;;;9.50;87.00;;;;;;5047453;28;20098;-63
2023/02/02 07:33:26;;;;;;;8.27;1.95;;;9.50;87.10;;;;;;5040381;28;20086;-70
2023/02/02 07:35:52;;;;;;;3.65;1.35;;;9.50;87.10;;;;;;5042647;28;20029;-68
2023/02/02 07:38:17;;;;;;;2.53;1.45;;;9.50;87.20;;;;;;5041522;28;20028;-62
2023/02/02 07:40:44;;;;;;;8.27;2.20;;;9.50;87.20;;;;;;5030975;28;20041;-63
2023/02/02 07:43:10;;;;;;;10.73;2.63;;;9.50;87.40;;;;;;5043233;28;20041;-63
2023/02/02 07:45:36;;;;;;;2.03;1.08;;;9.40;87.40;;;;;;5040153;28;20466;-63
2023/02/02 07:48:02;;;;;;;8.10;2.28;;;9.50;87.50;;;;;;5047086;28;20105;-63
2023/02/02 07:50:29;;;;;;;4.60;1.92;;;9.50;87.40;;;;;;5045561;28;20040;-64
2023/02/02 07:52:58;;;;;;;3.33;1.88;;;9.60;87.30;;;;;;5043666;28;20033;-62
2023/02/02 07:55:23;;;;;;;9.15;2.17;;;9.60;87.30;;;;;;5056602;28;20039;-63
2023/02/02 07:57:54;;;;;;;4.57;2.00;;;9.60;87.30;;;;;;5063890;28;20387;-62
2023/02/02 08:00:20;;;;;;;1.77;1.33;;;9.60;87.30;;;;;;5045878;28;20451;-63
2023/02/02 08:02:48;;;;;;;4.55;1.67;;;9.50;87.30;;;;;;5042861;28;20039;-63
2023/02/02 08:05:14;;;;;;;2.70;1.02;;;9.50;87.40;;;;;;5061656;28;20083;-64
2023/02/02 08:07:39;;;;;;;5.05;1.63;;;9.60;87.40;;;;;;5036266;28;20013;-70
2023/02/02 08:10:05;;;;;;;1.70;1.13;;;9.60;87.40;;;;;;5048661;28;20029;-74
2023/02/02 08:12:31;;;;;;;2.97;1.50;;;9.60;87.40;;;;;;5058372;28;20037;-74
2023/02/02 08:14:57;;;;;;;5.47;1.92;;;9.60;87.50;;;;;;5046137;28;20039;-71
2023/02/02 08:17:23;;;;;;;5.85;2.00;;;9.60;87.60;;;;;;5052143;28;20024;-71
2023/02/02 08:19:49;;;;;;;4.13;2.10;;;9.60;87.60;;;;;;5038786;28;20029;-73
2023/02/02 08:22:15;;;;;;;6.80;1.80;;;9.60;87.60;;;;;;5045074;28;20037;-62
2023/02/02 08:24:41;;;;;;;5.68;2.05;;;9.60;87.60;;;;;;5042345;28;20472;-62
2023/02/02 08:27:08;;;;;;;5.20;2.15;;;9.60;87.70;;;;;;5044519;28;20040;-63
2023/02/02 08:29:35;;;;;;;6.72;1.73;;;9.60;87.60;;;;;;5047610;28;20033;-65
2023/02/02 08:32:01;;;;;;;3.67;1.90;;;9.60;87.60;;;;;;5037283;28;20025;-64
2023/02/02 08:34:27;;;;;;;5.75;1.52;;;9.60;87.70;;;;;;5039000;28;20176;-67
2023/02/02 08:36:53;;;;;;;5.30;1.83;;;9.50;87.70;;;;;;5043527;28;20104;-68
2023/02/02 08:39:18;;;;;;;3.53;1.65;;;9.50;87.70;;;;;;5039313;28;20067;-67
2023/02/02 08:41:44;;;;;;;5.82;2.38;;;9.60;87.60;;;;;;5047525;28;20036;-61
2023/02/02 08:44:13;;;;;;;3.80;1.77;;;9.60;87.50;;;;;;5042258;28;20033;-62
2023/02/02 08:46:39;;;;;;;5.22;2.45;;;9.60;87.50;;;;;;5060012;28;20112;-67
2023/02/02 08:49:05;;;;;;;6.22;1.80;;;9.60;87.50;;;;;;5036891;28;20056;-67
2023/02/02 08:51:31;;;;;;;7.18;1.52;;;9.60;87.50;;;;;;5039447;28;20033;-66
2023/02/02 08:53:57;;;;;;;4.13;1.77;;;9.70;87.30;;;;;;5043389;28;20365;-63
2023/02/02 08:56:23;;;;;;;4.70;1.85;;;9.70;87.10;;;;;;5036874;28;20036;-63
2023/02/02 08:58:54;;;;;;;6.85;2.33;;;9.70;87.10;;;;;;5042680;28;20032;-63
2023/02/02 09:01:22;;;;;;;3.58;1.88;;;9.70;87.00;;;;;;5039539;28;20082;-67
2023/02/02 09:03:51;;;;;;;6.10;1.45;;;9.70;87.00;;;;;;5037936;28;20021;-62
2023/02/02 09:06:19;;;;;;;9.43;2.40;;;9.70;87.00;;;;;;5045345;28;20115;-62
2023/02/02 09:08:45;;;;;;;6.10;2.22;;;9.70;87.00;;;;;;5040417;28;20392;-62
2023/02/02 09:11:16;;;;;;;5.75;1.92;;;9.70;86.80;;;;;;5046366;28;20114;-61
2023/02/02 09:13:44;;;;;;;4.22;1.73;;;9.70;86.90;;;;;;5036549;28;20032;-61
2023/02/02 09:16:12;;;;;;;5.43;2.20;;;9.70;86.90;;;;;;5036337;28;20467;-62
2023/02/02 09:18:38;;;;;;;3.50;1.77;;;9.80;86.70;;;;;;5046804;28;20033;-63
2023/02/02 09:21:06;;;;;;;6.03;2.17;;;9.80;86.50;;;;;;5042423;28;20568;-62
2023/02/02 09:23:34;;;;;;;3.92;1.45;;;9.80;86.40;;;;;;5067075;28;20029;-65
2023/02/02 09:26:17;;;;;;;4.07;2.13;;;9.80;86.50;;;;;;5038474;28;20881;-62
2023/02/02 09:28:55;;;;;;;5.57;2.08;;;9.90;86.30;;;;;;5046822;28;20082;-61
2023/02/02 09:31:21;;;;;;;7.15;2.13;;;9.90;86.10;;;;;;5044264;28;20017;-66
2023/02/02 09:33:47;;;;;;;4.82;1.88;;;9.90;86.00;;;;;;5044451;28;20107;-67
2023/02/02 09:36:21;;;;;;;2.95;1.60;;;9.90;85.90;;;;;;5043342;28;20112;-63
2023/02/02 09:38:48;;;;;;;9.13;2.03;;;9.90;85.70;;;;;;5056565;28;20034;-62
2023/02/02 09:41:35;;;;;;;2.03;1.13;;;10.00;85.70;;;;;;5038581;28;20033;-62
2023/02/02 09:44:10;;;;;;;5.75;2.03;;;10.00;85.60;;;;;;5040023;28;20037;-62
2023/02/02 09:46:41;;;;;;;3.10;1.70;;;10.10;85.60;;;;;;5039790;28;20372;-63
2023/02/02 09:49:12;;;;;;;8.27;2.30;;;10.10;85.50;;;;;;5042956;28;20513;-63
2023/02/02 09:51:42;;;;;;;4.97;1.55;;;10.10;85.40;;;;;;5046703;28;20021;-63
2023/02/02 09:54:19;;;;;;;3.85;2.00;;;10.10;85.30;;;;;;5041129;28;20033;-63
2023/02/02 09:56:49;;;;;;;6.85;1.92;;;10.10;85.10;;;;;;5047261;28;20155;-63
2023/02/02 09:59:26;;;;;;;3.60;1.65;;;10.10;85.10;;;;;;5043162;28;20084;-63
2023/02/02 10:01:56;;;;;;;3.88;1.52;;;10.10;85.10;;;;;;5039033;28;20387;-63
2023/02/02 10:04:32;;;;;;;5.22;1.83;;;10.10;85.00;;;;;;5050907;28;20021;-63
2023/02/02 10:07:08;;;;;;;8.98;2.20;;;10.20;84.90;;;;;;5047554;28;20028;-67
2023/02/02 10:09:49;;;;;;;3.47;1.52;;;10.20;85.50;;;;;;5045601;28;20074;-67
2023/02/02 10:12:30;;;;;;;5.07;1.92;;;10.20;84.90;;;;;;5056688;28;20037;-67
2023/02/02 10:15:17;;;;;;;2.42;1.30;;;10.20;84.70;;;;;;5047593;28;20044;-67
2023/02/02 10:17:56;;;;;;;3.67;1.65;;;10.20;84.70;;;;;;5045170;28;20029;-67
2023/02/02 10:20:46;;;;;;;4.55;1.30;;;10.20;84.60;;;;;;5042088;28;20037;-67
2023/02/02 10:23:39;;;;;;;2.72;1.77;;;10.30;84.60;;;;;;5038494;28;20034;-67
2023/02/02 10:26:05;;;;;;;5.38;1.40;;;10.30;84.30;;;;;;5046689;28;20127;-63
2023/02/02 10:29:04;;;;;;;8.10;1.55;;;10.30;84.10;;;;;;5041762;28;20108;-65
2023/02/02 10:31:44;;;;;;;1.67;1.35;;;10.40;84.00;;;;;;5047379;28;20408;-63
2023/02/02 10:34:13;;;;;;;10.65;1.52;;;10.30;84.10;;;;;;5050367;28;20033;-63
2023/02/02 10:37:09;;;;;;;4.50;1.52;;;10.30;84.20;;;;;;5038672;28;20059;-63
2023/02/02 10:39:58;;;;;;;4.57;2.03;;;10.40;84.00;;;;;;5042963;28;20111;-63
2023/02/02 10:42:32;;;;;;;4.15;2.15;;;10.30;83.80;;;;;;5045138;28;20036;-63
2023/02/02 10:45:01;;;;;;;2.95;1.65;;;10.30;84.00;;;;;;5044959;28;20049;-67
2023/02/02 10:47:31;;;;;;;9.07;2.03;;;10.30;83.90;;;;;;5046729;28;21064;-67
2023/02/02 10:50:30;;;;;;;4.00;1.33;;;10.30;84.00;;;;;;5045945;28;20013;-67
2023/02/02 10:53:00;;;;;;;7.40;2.08;;;10.30;84.50;;;;;;5019003;28;20381;-67
2023/02/02 10:55:40;;;;;;;11.23;2.00;;;10.30;84.10;;;;;;5045537;28;20082;-67
2023/02/02 10:58:33;;;;;;;6.15;2.03;;;10.20;84.00;;;;;;5042153;28;20028;-67
2023/02/02 11:01:06;;;;;;;5.47;1.70;;;10.30;84.10;;;;;;5036669;28;20048;-62
2023/02/02 11:03:33;;;;;;;5.57;1.40;;;10.30;84.10;;;;;;5038711;28;20029;-63
2023/02/02 11:08:55;;;;;;;2.97;1.38;;;10.40;84.20;;;;;;5040222;28;20056;-62
2023/02/02 11:11:24;;;;;;;2.90;1.40;;;10.50;84.20;;;;;;5041793;28;20033;-63
2023/02/02 11:14:08;;;;;;;2.33;1.58;;;10.50;84.10;;;;;;5036987;28;20061;-63
2023/02/02 11:16:38;;;;;;;3.80;1.40;;;10.50;83.90;;;;;;5041575;28;20040;-67
2023/02/02 11:19:16;;;;;;;2.50;1.67;;;10.50;84.00;;;;;;5045511;28;20096;-68
2023/02/02 11:21:46;;;;;;;1.13;1.02;;;10.50;83.80;;;;;;5058975;28;20041;-62
2023/02/02 11:24:23;;;;;;;4.13;1.95;;;10.50;83.90;;;;;;5038129;28;20473;-62
2023/02/02 11:27:00;;;;;;;5.03;1.40;;;10.60;83.80;;;;;;5045124;28;20052;-66
2023/02/02 11:29:32;;;;;;;1.48;1.00;;;10.60;83.80;;;;;;5076320;28;20056;-68
2023/02/02 11:32:16;;;;;;;3.78;1.73;;;10.50;83.80;;;;;;5045607;28;20435;-67
2023/02/02 11:34:42;;;;;;;4.68;1.85;;;10.50;83.70;;;;;;5036081;28;20025;-67
2023/02/02 11:37:22;;;;;;;3.47;1.83;;;10.50;83.80;;;;;;5040560;28;20060;-67
2023/02/02 11:39:48;;;;;;;3.75;1.90;;;10.50;83.90;;;;;;5044084;28;20532;-67
2023/02/02 11:42:17;;;;;;;4.43;1.15;;;10.50;83.80;;;;;;5040521;28;20128;-62
2023/02/02 11:44:53;;;;;;;2.20;0.88;;;10.40;83.80;;;;;;5041056;28;20479;-61
2023/02/02 11:47:27;;;;;;;4.13;1.50;;;10.40;83.90;;;;;;5048036;28;20106;-66
2023/02/02 11:49:54;;;;;;;4.82;1.17;;;10.50;83.90;;;;;;5049196;28;20036;-61
2023/02/02 11:52:22;;;;;;;3.67;2.05;;;10.50;83.80;;;;;;5046034;28;20045;-62
2023/02/02 11:54:54;;;;;;;5.15;1.40;;;10.50;83.80;;;;;;5045448;28;20041;-67
2023/02/02 11:57:22;;;;;;;5.28;1.60;;;10.50;83.80;;;;;;5035649;28;20034;-62
2023/02/02 12:00:09;;;;;;;4.03;1.42;;;10.50;83.80;;;;;;5043939;28;20044;-65
2023/02/02 12:02:35;;;;;;;7.28;1.88;;;10.50;83.70;;;;;;5042991;28;20392;-67
2023/02/02 12:05:30;;;;;;;4.45;1.80;;;10.50;83.60;;;;;;5045294;28;20024;-62
2023/02/02 12:07:56;;;;;;;7.88;1.50;;;10.50;83.60;;;;;;5039678;28;20032;-63
2023/02/02 12:10:40;;;;;;;6.32;2.15;;;10.50;83.70;;;;;;5072486;28;20033;-65
2023/02/02 12:13:45;;;;;;;12.65;1.90;;;10.50;83.70;;;;;;5044660;28;20020;-62
2023/02/02 12:16:15;;;;;;;5.88;1.45;;;10.50;83.60;;;;;;5045621;28;20037;-63
2023/02/02 12:18:58;;;;;;;4.80;0.90;;;10.40;83.70;;;;;;5046345;28;20051;-63
2023/02/02 12:21:30;;;;;;;7.45;2.10;;;10.40;83.60;;;;;;5044513;28;20037;-67
2023/02/02 12:24:15;;;;;;;4.57;1.57;;;10.40;83.60;;;;;;5048323;28;20021;-62
2023/02/02 12:26:49;;;;;;;11.02;1.92;;;10.40;83.60;;;;;;5044704;28;20017;-62
2023/02/02 12:29:35;;;;;;;1.88;1.30;;;10.40;83.30;;;;;;5044959;28;20026;-66
2023/02/02 12:32:15;;;;;;;2.85;1.15;;;10.40;83.30;;;;;;5047771;28;20113;-67
2023/02/02 12:35:20;;;;;;;2.50;1.30;;;10.40;83.50;;;;;;5041353;28;21010;-67
2023/02/02 12:37:51;;;;;;;5.18;1.45;;;10.50;83.40;;;;;;5046156;28;20128;-62
2023/02/02 12:40:45;;;;;;;2.05;1.15;;;10.40;83.20;;;;;;5043497;28;20066;-65
2023/02/02 12:43:27;;;;;;;4.72;1.33;;;10.40;83.20;;;;;;5045762;28;20126;-61
2023/02/02 12:46:05;;;;;;;3.13;1.52;;;10.40;83.20;;;;;;5050037;28;20029;-65
2023/02/02 12:49:07;;;;;;;3.33;0.82;;;10.40;83.10;;;;;;5044567;28;20384;-63
2023/02/02 12:51:52;;;;;;;4.50;1.33;;;10.40;83.30;;;;;;5037814;28;20052;-66
2023/02/02 12:54:46;;;;;;;3.17;0.90;;;10.40;83.50;;;;;;5040214;28;20044;-63
2023/02/02 12:57:30;;;;;;;1.92;0.93;;;10.40;83.30;;;;;;5044451;28;20049;-62
2023/02/02 13:00:08;;;;;;;2.85;1.38;;;10.40;83.50;;;;;;5046694;28;20025;-65
2023/02/02 13:02:40;;;;;;;3.90;1.23;;;10.40;83.60;;;;;;5039223;28;20021;-66
2023/02/02 13:05:19;;;;;;;3.85;1.48;;;10.40;83.70;;;;;;5039928;28;20041;-62
2023/02/02 13:07:58;;;;;;;2.33;1.42;;;10.40;83.70;;;;;;5035874;28;20025;-63
2023/02/02 13:10:37;;;;;;;5.18;1.63;;;10.30;83.80;;;;;;5040946;28;20029;-63
2023/02/02 13:13:14;;;;;;;5.50;1.58;;;10.30;84.10;;;;;;5031256;28;20057;-65
2023/02/02 13:15:43;;;;;;;2.92;1.65;;;10.20;84.20;;;;;;5042627;28;20029;-65
2023/02/02 13:18:23;;;;;;;5.28;1.35;;;10.20;84.40;;;;;;5044312;28;20034;-66
2023/02/02 13:20:58;;;;;;;1.45;0.93;;;10.20;84.70;;;;;;5062775;28;20035;-65
2023/02/02 13:23:32;;;;;;;2.13;1.30;;;10.20;85.10;;;;;;5038001;28;20048;-66
2023/02/02 13:26:14;;;;;;;1.33;0.80;;;10.10;85.20;;;;;;5054297;28;20033;-61